Renville, Minnesota
Current Conditions -  °F | °C
As of 7:53 PM on Wednesday 26 Nov 2014 (Local Time) from KOVL Reporting Station
Clear Clear  
Wind Chill: -7°   Ceiling: Unl
Heat Index: 10°   Visibility: 10mi
Dew Point:   Wind: 17mph
Humidity: 79%   Direction: 310°NW
Pressure: 30.38"   Gusts: 25mph
Location:  44.79°N, 95.21°W
Report Text: KOVL 270153Z AUTO 31015G22KT 10SM CLR M12/M15 A3038 RMK AO2
Loading
Personal Weather Stations






























Interactive Weather Map New forecast layout! Learn more

10-Day Weather Forecast

Advertisements
Track Severe Weather on mobile